Time;durP1;ratioP1;P1;durP2;ratioP2;P2;SDS_P1;SDS_P2;PMS_P1;PMS_P2;Temp;Humidity;BMP_temperature;BMP_pressure;BME280_temperature;BME280_humidity;BME280_pressure;Samples;Min_cycle;Max_cycle;Signal;HPM_P1;HPM_P2
2021/11/25 00:01:58;;;;;;;11.40;10.20;;;;;;;7.73;65.53;99611.16;1758187;81;21152;-69
2021/11/25 00:04:24;;;;;;;12.43;8.78;;;;;;;7.72;65.58;99614.78;1762625;81;20985;-70
2021/11/25 00:06:51;;;;;;;11.12;9.73;;;;;;;7.70;65.65;99618.91;1765639;80;20951;-68
2021/11/25 00:09:18;;;;;;;10.28;8.83;;;;;;;7.70;65.73;99616.75;1759996;81;20997;-68
2021/11/25 00:11:45;;;;;;;10.53;9.43;;;;;;;7.74;65.61;99616.81;1753097;81;20951;-67
2021/11/25 00:14:11;;;;;;;11.95;9.20;;;;;;;7.71;65.58;99622.41;1754472;81;21153;-67
2021/11/25 00:16:40;;;;;;;10.58;9.48;;;;;;;7.68;65.57;99621.38;1746741;81;21010;-69
2021/11/25 00:19:07;;;;;;;10.63;9.63;;;;;;;7.68;65.64;99622.21;1760907;81;21003;-69
2021/11/25 00:21:34;;;;;;;11.28;9.88;;;;;;;7.68;65.59;99620.89;1764262;81;21717;-69
2021/11/25 00:24:03;;;;;;;11.95;8.98;;;;;;;7.71;65.46;99619.27;1765338;81;20923;-70
2021/11/25 00:26:30;;;;;;;9.75;8.75;;;;;;;7.72;65.45;99614.78;1755668;81;21175;-69
2021/11/25 00:28:57;;;;;;;10.35;8.53;;;;;;;7.74;65.45;99614.17;1748982;81;20932;-65
2021/11/25 00:31:23;;;;;;;9.88;8.88;;;;;;;7.74;65.35;99608.39;1765535;81;21034;-69
2021/11/25 00:33:50;;;;;;;10.30;8.75;;;;;;;7.72;65.33;99613.45;1751575;81;20943;-68
2021/11/25 00:36:16;;;;;;;11.12;9.65;;;;;;;7.73;65.37;99612.48;1757420;81;21489;-70
2021/11/25 00:38:46;;;;;;;8.93;8.03;;;;;;;7.70;65.38;99611.45;1750816;81;21161;-70
2021/11/25 00:41:14;;;;;;;10.45;8.68;;;;;;;7.68;65.34;99610.78;1714536;83;21026;-66
2021/11/25 00:43:41;;;;;;;9.75;8.60;;;;;;;7.69;65.31;99607.16;1691869;84;21016;-68
2021/11/25 00:46:08;;;;;;;10.25;8.90;;;;;;;7.71;65.21;99613.13;1746066;81;20935;-66
2021/11/25 00:48:34;;;;;;;10.75;9.43;;;;;;;7.67;65.35;99605.13;1737230;81;21544;-67
2021/11/25 00:51:01;;;;;;;9.30;8.38;;;;;;;7.66;65.32;99606.13;1765259;81;21032;-70
2021/11/25 00:53:28;;;;;;;10.32;8.65;;;;;;;7.63;65.33;99603.77;1752661;81;20945;-67
2021/11/25 00:55:54;;;;;;;11.08;8.63;;;;;;;7.61;65.38;99601.77;1755270;81;21446;-65
2021/11/25 00:58:21;;;;;;;9.60;8.50;;;;;;;7.63;65.34;99598.48;1767999;81;21003;-68
2021/11/25 01:00:48;;;;;;;9.90;8.88;;;;;;;7.65;65.33;99596.02;1760714;81;20911;-69
2021/11/25 01:03:16;;;;;;;9.80;8.80;;;;;;;7.67;65.35;99595.86;1752981;81;22001;-66
2021/11/25 01:05:43;;;;;;;11.53;9.23;;;;;;;7.67;65.31;99591.89;1761908;81;21006;-68
2021/11/25 01:08:10;;;;;;;10.05;8.90;;;;;;;7.70;65.22;99591.59;1750425;81;22050;-70
2021/11/25 01:10:38;;;;;;;10.90;8.75;;;;;;;7.71;65.22;99594.59;1761706;81;20892;-70
2021/11/25 01:13:05;;;;;;;8.60;7.80;;;;;;;7.71;65.24;99591.95;1751142;81;21480;-67
2021/11/25 01:15:34;;;;;;;9.70;8.28;;;;;;;7.72;65.22;99593.59;1758415;81;21159;-65
2021/11/25 01:18:05;;;;;;;9.45;8.05;;;;;;;7.69;65.20;99591.27;1748313;80;20925;-67
2021/11/25 01:20:33;;;;;;;10.05;7.97;;;;;;;7.66;65.26;99582.30;1767992;80;21529;-68
2021/11/25 01:23:05;;;;;;;10.40;8.73;;;;;;;7.69;65.24;99584.66;1758731;80;20931;-66
2021/11/25 01:25:32;;;;;;;9.70;8.70;;;;;;;7.64;65.40;99582.95;1760231;80;21032;-69
2021/11/25 01:28:00;;;;;;;9.85;8.45;;;;;;;7.65;65.36;99585.43;1751285;80;21161;-69
2021/11/25 01:30:27;;;;;;;9.33;8.03;;;;;;;7.64;65.38;99580.30;1767544;80;21737;-69
2021/11/25 01:32:55;;;;;;;8.93;8.05;;;;;;;7.64;65.38;99575.00;1764477;80;21485;-69
2021/11/25 01:35:22;;;;;;;8.83;7.92;;;;;;;7.67;65.34;99570.22;1764722;80;21039;-71
2021/11/25 01:37:50;;;;;;;10.72;8.33;;;;;;;7.66;65.38;99567.73;1767418;80;20975;-68
2021/11/25 01:40:17;;;;;;;9.40;8.13;;;;;;;7.64;65.37;99563.89;1768864;80;21148;-71
2021/11/25 01:42:44;;;;;;;10.23;7.37;;;;;;;7.65;65.34;99567.37;1764351;80;20959;-71
2021/11/25 01:45:11;;;;;;;8.73;7.83;;;;;;;7.65;65.32;99556.79;1767227;80;20956;-68
2021/11/25 01:47:45;;;;;;;8.63;7.72;;;;;;;7.61;65.31;99562.90;1760274;80;20911;-67
2021/11/25 01:50:16;;;;;;;8.65;7.80;;;;;;;7.60;65.31;99561.70;1766102;80;21026;-66
2021/11/25 01:52:43;;;;;;;9.25;7.87;;;;;;;7.60;65.38;99564.35;1766006;80;21148;-69
2021/11/25 01:55:11;;;;;;;9.58;7.80;;;;;;;7.63;65.21;99556.11;1761967;80;20976;-71
2021/11/25 01:57:38;;;;;;;10.05;8.13;;;;;;;7.63;65.13;99551.66;1760574;80;20954;-71
2021/11/25 02:00:14;;;;;;;7.95;7.15;;;;;;;7.64;65.12;99559.12;1763326;80;20931;-71
2021/11/25 02:02:43;;;;;;;7.95;7.15;;;;;;;7.63;64.99;99549.50;1770181;80;20994;-68
2021/11/25 02:05:10;;;;;;;8.35;7.42;;;;;;;7.62;64.94;99551.79;1771290;80;21165;-68
2021/11/25 02:07:38;;;;;;;9.58;7.97;;;;;;;7.59;64.95;99552.92;1758832;80;20984;-68
2021/11/25 02:10:06;;;;;;;8.45;7.35;;;;;;;7.59;64.82;99554.73;1762721;80;20990;-71
2021/11/25 02:12:34;;;;;;;8.13;7.03;;;;;;;7.56;64.90;99548.44;1761128;80;21544;-68
2021/11/25 02:15:03;;;;;;;8.43;7.62;;;;;;;7.54;64.82;99542.44;1755500;80;20907;-67
2021/11/25 02:17:30;;;;;;;8.18;7.37;;;;;;;7.54;64.84;99542.44;1771450;80;21169;-66
2021/11/25 02:19:57;;;;;;;8.18;7.45;;;;;;;7.56;64.88;99543.95;1753517;80;20923;-66
2021/11/25 02:22:24;;;;;;;8.08;7.28;;;;;;;7.58;64.80;99539.36;1752993;81;21043;-71
2021/11/25 02:24:51;;;;;;;9.20;7.08;;;;;;;7.60;64.59;99536.06;1752901;81;21040;-71
2021/11/25 02:27:19;;;;;;;8.28;7.42;;;;;;;7.58;64.52;99535.87;1755718;81;20971;-70
2021/11/25 02:29:48;;;;;;;7.92;7.12;;;;;;;7.57;64.34;99524.45;1751938;81;21477;-67
2021/11/25 02:32:31;;;;;;;8.38;7.37;;;;;;;7.56;64.23;99529.91;1756481;80;20976;-66
2021/11/25 02:34:58;;;;;;;8.38;7.50;;;;;;;7.50;64.22;99535.79;1758826;81;21540;-70
2021/11/25 02:37:24;;;;;;;8.68;7.78;;;;;;;7.45;64.27;99534.92;1767608;81;20951;-66
2021/11/25 02:39:52;;;;;;;7.78;6.72;;;;;;;7.45;64.24;99532.27;1760055;81;20976;-68
2021/11/25 02:42:18;;;;;;;7.33;6.60;;;;;;;7.44;64.23;99538.53;1761747;81;22067;-68
2021/11/25 02:44:45;;;;;;;8.03;7.22;;;;;;;7.44;64.13;99528.78;1753327;81;20967;-71
2021/11/25 02:47:12;;;;;;;7.60;6.90;;;;;;;7.46;64.10;99541.38;1762494;81;20903;-71
2021/11/25 02:49:40;;;;;;;7.70;6.87;;;;;;;7.48;64.08;99535.95;1759060;81;20953;-68
2021/11/25 02:52:07;;;;;;;7.22;6.53;;;;;;;7.48;64.02;99528.81;1750333;81;20994;-66
2021/11/25 02:54:34;;;;;;;7.42;6.72;;;;;;;7.50;63.90;99529.17;1761662;81;21112;-69
2021/11/25 02:57:01;;;;;;;8.40;6.65;;;;;;;7.52;63.75;99524.55;1751617;81;20928;-65
2021/11/25 02:59:28;;;;;;;7.70;6.40;;;;;;;7.52;63.71;99522.74;1758197;80;20991;-68
2021/11/25 03:01:55;;;;;;;9.28;7.03;;;;;;;7.54;63.59;99522.58;1752213;81;21864;-70
2021/11/25 03:04:21;;;;;;;7.30;6.60;;;;;;;7.57;63.43;99514.34;1759463;81;20967;-67
2021/11/25 03:06:48;;;;;;;7.60;6.78;;;;;;;7.57;63.33;99518.31;1757283;81;21880;-67
2021/11/25 03:09:16;;;;;;;8.15;7.37;;;;;;;7.59;63.21;99516.34;1750251;81;21057;-69
2021/11/25 03:11:43;;;;;;;7.55;6.67;;;;;;;7.62;63.11;99512.91;1758356;81;21042;-65
2021/11/25 03:14:10;;;;;;;7.65;6.40;;;;;;;7.63;62.92;99517.72;1746248;81;20994;-68
2021/11/25 03:16:36;;;;;;;8.28;7.47;;;;;;;7.62;62.87;99504.13;1757230;81;20975;-65
2021/11/25 03:19:03;;;;;;;7.87;6.90;;;;;;;7.64;62.80;99508.29;1759384;80;21142;-67
2021/11/25 03:21:29;;;;;;;7.90;7.12;;;;;;;7.62;62.72;99504.13;1758807;80;20987;-67
2021/11/25 03:24:00;;;;;;;8.28;7.08;;;;;;;7.61;62.64;99506.45;1769059;80;21025;-68
2021/11/25 03:26:27;;;;;;;11.45;9.10;;;;;;;7.63;62.58;99505.80;1750780;80;20971;-69
2021/11/25 03:28:54;;;;;;;12.82;9.85;;;;;;;7.64;62.62;99507.48;1753270;80;21038;-69
2021/11/25 03:31:26;;;;;;;10.18;8.53;;;;;;;7.67;62.62;99508.48;1765100;80;21146;-68
2021/11/25 03:33:54;;;;;;;12.23;10.20;;;;;;;7.66;62.59;99507.67;1758752;80;21113;-72
2021/11/25 03:36:22;;;;;;;16.12;12.00;;;;;;;7.67;62.51;99501.38;1758316;80;21042;-67
2021/11/25 03:38:49;;;;;;;9.88;8.63;;;;;;;7.71;62.31;99495.30;1758555;80;20939;-66
2021/11/25 03:41:16;;;;;;;9.18;8.28;;;;;;;7.67;62.24;99493.43;1752510;80;20990;-70
2021/11/25 03:43:43;;;;;;;8.25;7.40;;;;;;;7.65;62.23;99485.30;1751432;80;22353;-72
2021/11/25 03:46:10;;;;;;;9.70;8.33;;;;;;;7.65;62.17;99482.66;1761301;80;20883;-68
2021/11/25 03:48:37;;;;;;;8.13;7.37;;;;;;;7.62;62.27;99486.44;1758296;80;20991;-71
2021/11/25 03:51:08;;;;;;;7.83;7.03;;;;;;;7.59;62.36;99484.57;1766267;80;21148;-72
2021/11/25 03:53:36;;;;;;;8.98;7.45;;;;;;;7.57;62.53;99486.06;1762179;80;21055;-68
2021/11/25 03:56:04;;;;;;;8.60;7.65;;;;;;;7.55;62.55;99481.90;1760349;80;21149;-67
2021/11/25 03:58:31;;;;;;;8.73;7.22;;;;;;;7.52;62.66;99486.16;1763861;80;21093;-68
2021/11/25 04:01:00;;;;;;;10.28;9.25;;;;;;;7.50;62.66;99479.72;1766886;80;21839;-68
2021/11/25 04:03:26;;;;;;;10.55;9.00;;;;;;;7.43;62.88;99487.89;1767913;80;21533;-66
2021/11/25 04:05:53;;;;;;;8.98;7.33;;;;;;;7.41;62.94;99487.22;1763256;80;20947;-69
2021/11/25 04:08:20;;;;;;;9.83;8.23;;;;;;;7.39;63.03;99490.52;1755327;80;21161;-65
2021/11/25 04:10:47;;;;;;;11.93;8.45;;;;;;;7.38;62.95;99491.00;1754549;80;20880;-65
2021/11/25 04:13:15;;;;;;;11.60;8.98;;;;;;;7.35;63.06;99483.87;1760620;80;21525;-66
2021/11/25 04:15:42;;;;;;;9.90;8.90;;;;;;;7.39;62.98;99479.44;1765566;80;20966;-70
2021/11/25 04:18:09;;;;;;;12.03;9.73;;;;;;;7.41;62.93;99478.79;1771984;80;20868;-71
2021/11/25 04:20:36;;;;;;;11.18;10.03;;;;;;;7.36;62.87;99469.15;1752072;80;21225;-67
2021/11/25 04:23:03;;;;;;;14.63;9.65;;;;;;;7.30;62.75;99466.28;1750338;81;21508;-69
2021/11/25 04:25:33;;;;;;;14.53;10.10;;;;;;;7.18;62.92;99460.84;1760661;81;21738;-70
2021/11/25 04:27:59;;;;;;;11.90;9.80;;;;;;;7.10;63.17;99460.27;1749809;81;21561;-69
2021/11/25 04:30:46;;;;;;;11.73;10.08;;;;;;;7.08;63.14;99458.27;1761866;81;20983;-68
2021/11/25 04:35:40;;;;;;;11.97;10.40;;;;;;;7.05;63.01;99457.23;1754635;81;20974;-70
2021/11/25 04:38:20;;;;;;;11.12;9.53;;;;;;;7.01;62.92;99453.72;1763679;81;20923;-67
2021/11/25 04:40:50;;;;;;;11.75;9.80;;;;;;;6.99;62.94;99454.37;1761706;80;20975;-69
2021/11/25 04:43:18;;;;;;;12.40;9.40;;;;;;;6.93;63.14;99443.05;1761862;81;21500;-65
2021/11/25 04:45:47;;;;;;;15.63;10.35;;;;;;;6.94;63.21;99445.53;1762421;81;21831;-71
2021/11/25 04:48:14;;;;;;;18.32;10.23;;;;;;;6.99;62.98;99442.47;1760212;81;20937;-69
2021/11/25 04:50:41;;;;;;;13.35;9.75;;;;;;;6.97;63.05;99444.41;1757735;81;21474;-72
2021/11/25 04:53:12;;;;;;;12.18;10.78;;;;;;;6.94;63.19;99438.92;1740442;81;20902;-70
2021/11/25 04:55:40;;;;;;;12.13;10.80;;;;;;;6.94;63.25;99436.76;1762742;81;20919;-69
2021/11/25 04:58:07;;;;;;;12.13;10.20;;;;;;;6.93;63.26;99433.79;1752410;81;21153;-68
2021/11/25 05:00:34;;;;;;;13.83;10.18;;;;;;;6.92;63.08;99434.27;1758150;81;20971;-69
2021/11/25 05:03:01;;;;;;;12.43;10.30;;;;;;;6.88;63.01;99438.21;1756449;81;22443;-67
2021/11/25 05:05:27;;;;;;;13.75;11.18;;;;;;;6.90;62.97;99435.41;1765248;81;20994;-69
2021/11/25 05:07:54;;;;;;;13.45;11.55;;;;;;;6.83;62.92;99424.57;1748153;81;20927;-67
2021/11/25 05:10:21;;;;;;;13.18;10.95;;;;;;;6.71;62.90;99429.24;1760663;81;21864;-65
2021/11/25 05:12:48;;;;;;;13.50;11.00;;;;;;;6.68;62.80;99429.53;1747825;81;20872;-69
2021/11/25 05:15:15;;;;;;;17.02;11.78;;;;;;;6.62;63.05;99430.11;1742168;81;20975;-69
2021/11/25 05:17:42;;;;;;;12.43;11.12;;;;;;;6.60;63.11;99423.30;1741356;81;20931;-66
2021/11/25 05:20:12;;;;;;;13.58;11.85;;;;;;;6.50;63.25;99419.88;1739735;80;21381;-66
2021/11/25 05:22:39;;;;;;;15.50;11.70;;;;;;;6.31;63.96;99427.90;1735961;82;21970;-68
2021/11/25 05:25:07;;;;;;;14.18;11.08;;;;;;;6.23;64.13;99418.54;1745121;82;21024;-71
2021/11/25 05:27:34;;;;;;;15.88;12.20;;;;;;;6.12;64.33;99419.55;1737886;82;20967;-69
2021/11/25 05:30:01;;;;;;;16.00;12.18;;;;;;;6.01;64.47;99411.30;1742828;82;20959;-68
2021/11/25 05:32:28;;;;;;;13.25;11.20;;;;;;;5.99;64.62;99410.62;1732887;82;21052;-68
2021/11/25 05:34:55;;;;;;;11.88;10.65;;;;;;;5.96;64.69;99400.34;1693394;84;21120;-68
2021/11/25 05:37:21;;;;;;;14.40;12.20;;;;;;;5.90;64.95;99402.70;1702198;84;21094;-69
2021/11/25 05:39:48;;;;;;;12.37;11.08;;;;;;;5.78;65.24;99403.81;1688858;84;20962;-68
2021/11/25 05:42:15;;;;;;;14.73;11.40;;;;;;;5.63;65.47;99400.80;1668984;84;20999;-69
2021/11/25 05:44:43;;;;;;;14.87;12.50;;;;;;;5.53;65.68;99403.90;1669104;85;21019;-69
2021/11/25 05:47:09;;;;;;;14.73;10.93;;;;;;;5.41;66.02;99405.87;1696857;84;21124;-68
2021/11/25 05:49:36;;;;;;;14.13;12.18;;;;;;;5.39;66.23;99408.30;1681213;84;20943;-68
2021/11/25 05:52:04;;;;;;;14.78;12.95;;;;;;;5.32;66.26;99405.87;1694080;84;20937;-66
2021/11/25 05:54:31;;;;;;;17.00;13.13;;;;;;;5.21;66.49;99405.52;1733018;82;21437;-67
2021/11/25 05:56:58;;;;;;;16.90;13.83;;;;;;;5.16;66.70;99403.80;1741060;82;20898;-67
2021/11/25 05:59:24;;;;;;;17.32;15.08;;;;;;;5.19;66.88;99409.27;1701966;84;21144;-66
2021/11/25 06:01:51;;;;;;;18.35;15.40;;;;;;;5.20;66.84;99413.55;1687145;84;21009;-65
2021/11/25 06:04:18;;;;;;;20.27;15.10;;;;;;;5.27;66.87;99415.50;1703163;84;21650;-66
2021/11/25 06:06:45;;;;;;;20.97;16.30;;;;;;;5.39;66.90;99411.77;1734548;82;20971;-69
2021/11/25 06:09:11;;;;;;;21.93;15.68;;;;;;;5.57;66.58;99411.90;1697092;84;21013;-67
2021/11/25 06:11:38;;;;;;;18.05;15.13;;;;;;;5.69;66.19;99404.16;1707261;83;21101;-70
2021/11/25 06:14:06;;;;;;;20.40;15.78;;;;;;;5.81;65.67;99407.49;1704156;84;20982;-71
2021/11/25 06:16:33;;;;;;;20.80;15.05;;;;;;;5.96;65.30;99412.70;1689726;84;20974;-72
2021/11/25 06:18:59;;;;;;;17.85;14.83;;;;;;;6.15;64.67;99417.42;1702085;83;20943;-70
2021/11/25 06:21:26;;;;;;;16.97;15.18;;;;;;;6.29;64.05;99404.73;1692043;83;21066;-67
2021/11/25 06:23:52;;;;;;;21.48;15.78;;;;;;;6.47;63.43;99417.03;1714356;82;21271;-71
2021/11/25 06:26:19;;;;;;;20.52;16.27;;;;;;;6.53;62.88;99406.37;1741275;82;21460;-72
2021/11/25 06:28:46;;;;;;;19.60;15.88;;;;;;;6.60;62.30;99407.45;1746207;82;20944;-70
2021/11/25 06:31:12;;;;;;;21.73;15.10;;;;;;;6.53;62.23;99409.86;1741119;82;21599;-71
2021/11/25 06:33:39;;;;;;;19.23;15.35;;;;;;;6.71;62.38;99401.48;1732785;82;21527;-75
2021/11/25 06:36:05;;;;;;;19.82;15.10;;;;;;;6.87;61.18;99409.25;1735656;82;21136;-72
2021/11/25 06:38:32;;;;;;;21.17;14.98;;;;;;;6.82;61.05;99408.38;1744998;82;21366;-70
2021/11/25 06:41:00;;;;;;;24.50;15.00;;;;;;;6.91;60.94;99403.51;1746824;82;21473;-71
2021/11/25 06:43:27;;;;;;;19.87;14.63;;;;;;;7.08;60.90;99400.55;1731900;82;21509;-73
2021/11/25 06:45:53;;;;;;;16.97;14.07;;;;;;;7.38;60.60;99397.04;1736425;82;21078;-67
2021/11/25 06:48:20;;;;;;;16.85;14.60;;;;;;;7.76;59.84;99394.55;1719564;82;21167;-67
2021/11/25 06:50:47;;;;;;;18.57;14.50;;;;;;;8.13;58.86;99378.41;1741509;82;21056;-68
2021/11/25 06:53:13;;;;;;;15.55;13.93;;;;;;;8.51;57.82;99388.56;1737794;82;20940;-75
2021/11/25 06:55:40;;;;;;;16.27;14.10;;;;;;;8.83;56.58;99377.73;1729359;82;20995;-69
2021/11/25 06:58:11;;;;;;;14.55;12.15;;;;;;;9.08;55.89;99384.26;1721286;82;20928;-70
2021/11/25 07:00:38;;;;;;;14.98;13.38;;;;;;;9.28;54.85;99371.01;1745378;82;21133;-71
2021/11/25 07:03:05;;;;;;;16.05;13.85;;;;;;;9.41;54.12;99373.69;1736941;82;21485;-70
2021/11/25 07:05:32;;;;;;;15.23;13.45;;;;;;;9.42;53.66;99376.17;1746452;82;20850;-70
2021/11/25 07:07:59;;;;;;;15.95;14.23;;;;;;;9.52;53.29;99368.03;1735874;82;20966;-70
2021/11/25 07:10:26;;;;;;;16.50;14.20;;;;;;;9.61;52.76;99374.52;1730799;82;21019;-68
2021/11/25 07:12:54;;;;;;;17.20;14.13;;;;;;;9.73;52.62;99359.06;1724992;82;21151;-69
2021/11/25 07:15:22;;;;;;;17.10;14.70;;;;;;;9.89;51.97;99370.50;1730765;82;21394;-68
2021/11/25 07:17:51;;;;;;;17.05;15.10;;;;;;;9.87;51.58;99382.30;1731898;82;21046;-68
2021/11/25 07:20:18;;;;;;;19.45;15.43;;;;;;;9.83;51.49;99367.67;1734492;80;21003;-72
2021/11/25 07:22:45;;;;;;;15.85;14.23;;;;;;;9.76;51.22;99361.38;1750624;80;20939;-71
2021/11/25 07:25:16;;;;;;;17.80;14.98;;;;;;;9.65;51.71;99377.16;1762757;80;21563;-70
2021/11/25 07:27:43;;;;;;;15.65;14.05;;;;;;;9.70;51.58;99369.52;1768868;80;21497;-70
2021/11/25 07:30:13;;;;;;;17.15;14.35;;;;;;;9.68;51.64;99364.05;1771220;80;21116;-71
2021/11/25 07:32:40;;;;;;;17.87;14.90;;;;;;;9.60;51.36;99367.53;1765289;80;20986;-71
2021/11/25 07:35:09;;;;;;;15.80;14.20;;;;;;;9.52;51.66;99352.09;1762732;80;21002;-70
2021/11/25 07:37:36;;;;;;;17.17;15.38;;;;;;;9.58;51.89;99355.42;1767420;80;21086;-68
2021/11/25 07:40:05;;;;;;;19.37;15.93;;;;;;;9.56;51.66;99358.75;1736565;80;21373;-68
2021/11/25 07:42:32;;;;;;;16.80;15.10;;;;;;;9.49;51.87;99351.93;1766770;80;21494;-64
2021/11/25 07:44:58;;;;;;;17.42;15.13;;;;;;;9.41;51.80;99347.94;1765950;80;20947;-71
2021/11/25 07:47:32;;;;;;;16.32;14.63;;;;;;;9.39;52.27;99347.29;1767583;80;20903;-64
2021/11/25 07:50:07;;;;;;;19.15;14.65;;;;;;;9.39;52.05;99345.95;1766526;80;24959;-66
2021/11/25 07:52:34;;;;;;;17.30;14.20;;;;;;;9.35;52.23;99363.23;1764524;80;21002;-66
2021/11/25 07:55:01;;;;;;;17.98;16.02;;;;;;;9.29;52.39;99334.68;1763708;80;21473;-65
2021/11/25 07:57:28;;;;;;;17.27;14.65;;;;;;;9.16;52.56;99336.50;1763727;80;20998;-68
2021/11/25 07:59:54;;;;;;;18.75;15.58;;;;;;;9.07;52.89;99339.33;1762941;80;20947;-66
2021/11/25 08:02:21;;;;;;;19.87;15.60;;;;;;;9.03;53.18;99330.84;1761192;80;21896;-63
2021/11/25 08:04:48;;;;;;;19.02;15.75;;;;;;;9.16;53.33;99325.05;1750789;80;21023;-70
2021/11/25 08:07:16;;;;;;;19.00;15.95;;;;;;;9.34;52.98;99340.32;1765853;80;20868;-65
2021/11/25 08:09:44;;;;;;;21.15;15.70;;;;;;;9.33;52.47;99327.54;1764080;80;21408;-75
2021/11/25 08:12:11;;;;;;;24.27;15.05;;;;;;;9.35;52.72;99332.70;1763393;80;20895;-69
2021/11/25 08:14:37;;;;;;;19.25;15.83;;;;;;;9.39;52.46;99331.36;1761603;80;21162;-63
2021/11/25 08:17:05;;;;;;;19.40;16.40;;;;;;;9.22;52.62;99335.02;1755957;80;21029;-68
2021/11/25 08:19:32;;;;;;;22.32;16.32;;;;;;;9.06;52.88;99323.05;1770256;80;20923;-60
2021/11/25 08:21:58;;;;;;;21.12;16.60;;;;;;;8.88;53.79;99317.89;1751603;81;21057;-70
2021/11/25 08:24:25;;;;;;;21.60;16.37;;;;;;;9.19;56.43;99314.95;1763059;81;20962;-73
2021/11/25 08:26:54;;;;;;;19.48;16.67;;;;;;;9.44;54.94;99304.33;1763057;81;21592;-69
2021/11/25 08:29:21;;;;;;;15.55;13.68;;;;;;;9.72;54.81;99306.45;1753357;81;20936;-68
2021/11/25 08:31:49;;;;;;;16.77;14.15;;;;;;;9.83;56.32;99307.41;1760922;81;20892;-68
2021/11/25 08:34:17;;;;;;;16.12;13.85;;;;;;;10.03;55.45;99299.05;1750281;81;20927;-68
2021/11/25 08:36:44;;;;;;;19.73;15.25;;;;;;;9.98;53.67;99306.72;1751900;81;21054;-68
2021/11/25 08:39:10;;;;;;;15.35;13.50;;;;;;;9.71;53.43;99300.80;1758862;81;21143;-67
2021/11/25 08:41:37;;;;;;;16.15;14.03;;;;;;;9.65;53.18;99301.95;1748531;81;21034;-69
2021/11/25 08:44:04;;;;;;;23.02;15.03;;;;;;;9.53;53.12;99320.08;1754465;81;20991;-67
2021/11/25 08:46:31;;;;;;;19.92;15.53;;;;;;;9.33;53.71;99300.67;1764097;81;20900;-68
2021/11/25 08:48:58;;;;;;;18.57;14.75;;;;;;;9.34;53.78;99300.50;1751579;81;21031;-67
2021/11/25 08:51:25;;;;;;;18.40;14.35;;;;;;;9.37;54.11;99302.83;1756303;81;21162;-69
2021/11/25 08:53:51;;;;;;;21.00;15.28;;;;;;;9.52;54.00;99287.03;1758580;81;21414;-69
2021/11/25 08:56:18;;;;;;;18.17;15.58;;;;;;;9.61;53.94;99279.40;1761219;81;21057;-67
2021/11/25 08:58:46;;;;;;;18.42;15.03;;;;;;;9.71;53.74;99274.73;1756059;81;20909;-65
2021/11/25 09:01:12;;;;;;;16.05;14.55;;;;;;;9.69;53.07;99294.83;1763628;81;21422;-66
2021/11/25 09:03:39;;;;;;;19.12;13.95;;;;;;;9.75;53.24;99271.55;1756657;81;21169;-66
2021/11/25 09:06:06;;;;;;;17.37;14.83;;;;;;;9.84;53.21;99269.71;1748731;81;21552;-67
2021/11/25 09:08:32;;;;;;;17.30;15.32;;;;;;;10.01;53.28;99265.19;1751369;81;20932;-66
2021/11/25 09:10:59;;;;;;;16.15;14.45;;;;;;;10.12;52.52;99266.12;1752602;81;20892;-66
2021/11/25 09:13:26;;;;;;;16.50;14.28;;;;;;;9.99;52.62;99260.52;1756454;81;21006;-66
2021/11/25 09:15:54;;;;;;;19.00;15.18;;;;;;;10.00;52.43;99264.84;1754396;81;21218;-68
2021/11/25 09:18:22;;;;;;;18.23;15.10;;;;;;;9.98;52.62;99250.91;1748126;81;20887;-67
2021/11/25 09:20:52;;;;;;;15.78;14.18;;;;;;;10.04;52.46;99240.41;1746518;80;21438;-70
2021/11/25 09:23:21;;;;;;;17.95;14.05;;;;;;;10.14;52.48;99226.95;1756988;80;21003;-68
2021/11/25 09:25:50;;;;;;;21.82;15.35;;;;;;;10.08;52.55;99239.08;1761892;80;21038;-65
2021/11/25 09:28:21;;;;;;;16.27;14.53;;;;;;;10.10;52.78;99226.43;1765045;80;21804;-65
2021/11/25 09:30:47;;;;;;;20.50;16.27;;;;;;;10.20;52.47;99220.43;1773039;80;21469;-67
2021/11/25 09:33:15;;;;;;;17.98;15.98;;;;;;;10.20;52.47;99207.14;1756346;80;21562;-65
2021/11/25 09:35:41;;;;;;;15.75;14.13;;;;;;;10.09;53.91;99216.79;1774142;80;21071;-66
2021/11/25 09:38:09;;;;;;;17.27;15.15;;;;;;;10.21;53.75;99210.63;1765043;80;21045;-67
2021/11/25 09:40:36;;;;;;;17.62;15.43;;;;;;;10.18;53.10;99203.00;1762005;80;21170;-66
2021/11/25 09:43:07;;;;;;;16.97;14.18;;;;;;;10.19;53.68;99194.87;1760801;80;21046;-68
2021/11/25 09:45:36;;;;;;;16.65;14.83;;;;;;;10.42;52.94;99193.56;1766180;80;21113;-66
2021/11/25 09:48:06;;;;;;;15.63;14.13;;;;;;;10.45;52.26;99199.34;1703026;84;21030;-74
2021/11/25 09:50:36;;;;;;;15.08;13.40;;;;;;;10.42;52.72;99200.21;1704167;83;21129;-68
2021/11/25 09:53:08;;;;;;;16.97;14.00;;;;;;;10.47;52.04;99180.06;1693135;82;21501;-68
2021/11/25 09:55:35;;;;;;;14.83;13.35;;;;;;;10.35;52.01;99174.80;1689243;84;21023;-67
2021/11/25 09:58:03;;;;;;;18.77;14.78;;;;;;;10.19;52.29;99157.66;1761989;80;20936;-67
2021/11/25 10:00:32;;;;;;;15.08;13.43;;;;;;;10.03;52.83;99164.35;1721527;82;20919;-69
2021/11/25 10:03:00;;;;;;;16.52;13.53;;;;;;;9.89;53.34;99169.06;1722770;82;21485;-67
2021/11/25 10:05:26;;;;;;;15.43;13.83;;;;;;;10.04;53.45;99167.84;1724646;82;21807;-68
2021/11/25 10:07:53;;;;;;;15.45;13.95;;;;;;;10.15;52.99;99155.50;1700815;83;21034;-67
2021/11/25 10:10:29;;;;;;;16.25;14.25;;;;;;;10.15;53.09;99144.37;1696782;82;21306;-68
2021/11/25 10:13:00;;;;;;;17.95;14.65;;;;;;;10.09;52.33;99157.52;1696747;84;21502;-69
2021/11/25 10:15:34;;;;;;;15.90;14.30;;;;;;;9.82;53.21;99163.63;1754796;80;21053;-67
2021/11/25 10:18:11;;;;;;;15.63;14.05;;;;;;;9.90;53.21;99140.17;1757307;80;21481;-67
2021/11/25 10:20:41;;;;;;;18.37;15.40;;;;;;;9.85;53.39;99130.56;1754111;80;21059;-61
2021/11/25 10:23:16;;;;;;;15.55;13.95;;;;;;;10.01;53.98;99137.09;1771709;80;20982;-65
2021/11/25 10:25:50;;;;;;;16.03;14.10;;;;;;;10.22;53.90;99125.90;1756020;80;21094;-65
2021/11/25 10:28:41;;;;;;;17.07;14.83;;;;;;;10.45;52.41;99136.03;1759091;80;21022;-69
2021/11/25 10:31:29;;;;;;;17.87;16.07;;;;;;;10.57;52.21;99109.33;1761919;80;21157;-64
2021/11/25 10:34:19;;;;;;;25.27;17.42;;;;;;;10.64;55.19;99108.93;1743211;80;21013;-72
2021/11/25 10:37:03;;;;;;;17.17;15.35;;;;;;;10.53;56.72;99119.49;1716819;82;21050;-71
2021/11/25 10:42:06;;;;;;;15.50;13.70;;;;;;;10.49;51.69;99120.87;1699950;83;21528;-73
2021/11/25 10:44:38;;;;;;;15.78;14.03;;;;;;;10.36;51.99;99114.48;1709051;83;21152;-71
2021/11/25 10:47:18;;;;;;;15.78;14.18;;;;;;;10.39;52.34;99098.18;1708258;83;20943;-74
2021/11/25 10:50:00;;;;;;;17.15;14.73;;;;;;;10.33;51.90;99090.41;1759431;80;20955;-75
2021/11/25 10:52:31;;;;;;;15.63;14.07;;;;;;;10.14;52.10;99112.13;1722020;82;20921;-73
2021/11/25 10:55:00;;;;;;;15.83;14.05;;;;;;;10.11;52.23;99116.96;1724505;82;20975;-70
2021/11/25 10:57:52;;;;;;;15.90;13.13;;;;;;;10.12;52.58;99083.58;1727888;82;21279;-71
2021/11/25 11:00:36;;;;;;;18.52;14.23;;;;;;;10.23;52.23;99088.98;1722773;82;21008;-69
2021/11/25 11:03:26;;;;;;;15.08;13.58;;;;;;;10.25;51.87;99070.52;1771981;80;21113;-71
2021/11/25 11:06:03;;;;;;;14.30;12.88;;;;;;;10.23;51.98;99066.39;1763310;80;21046;-70
2021/11/25 11:08:43;;;;;;;17.37;15.25;;;;;;;10.13;52.49;99071.13;1761696;80;21418;-67
2021/11/25 11:11:12;;;;;;;16.02;14.33;;;;;;;10.10;52.73;99079.41;1751922;80;21802;-70
2021/11/25 11:13:49;;;;;;;14.55;13.10;;;;;;;10.19;52.78;99058.46;1757611;80;21650;-69
2021/11/25 11:21:40;;;;;;;17.00;15.23;;;;;;;10.39;53.97;99035.19;1756698;80;20935;-62
2021/11/25 11:24:20;;;;;;;14.60;13.20;;;;;;;10.41;55.25;99035.00;1757468;80;21152;-64
2021/11/25 11:26:53;;;;;;;15.20;13.60;;;;;;;10.54;54.01;99027.23;1759496;80;20927;-69
2021/11/25 11:29:22;;;;;;;15.72;14.13;;;;;;;10.60;52.77;99035.00;1766545;80;20932;-68
2021/11/25 11:31:51;;;;;;;15.75;13.20;;;;;;;10.53;51.99;99018.95;1761464;80;21018;-64
2021/11/25 11:34:18;;;;;;;15.28;13.65;;;;;;;10.60;54.21;99019.88;1757319;80;21128;-60
2021/11/25 11:36:47;;;;;;;18.57;14.50;;;;;;;10.93;54.79;99022.50;1762721;80;21927;-72
2021/11/25 11:39:19;;;;;;;16.45;14.73;;;;;;;11.07;52.75;99017.70;1754397;80;21041;-69
2021/11/25 11:41:50;;;;;;;15.32;13.93;;;;;;;11.09;50.74;99007.69;1763473;80;21042;-67
2021/11/25 11:44:20;;;;;;;15.58;14.05;;;;;;;10.97;50.73;98999.02;1760553;80;21003;-68
2021/11/25 11:46:49;;;;;;;16.48;14.65;;;;;;;10.87;51.08;98995.29;1758686;80;20983;-69